createdAt,value
2019-03-26T00:00:55.624Z,44.82
2019-03-26T00:15:50.307Z,45.47
2019-03-26T00:30:57.366Z,46.44
2019-03-26T00:45:54.237Z,46.77
2019-03-26T01:00:50.326Z,46.76
2019-03-26T01:15:50.601Z,46.64
2019-03-26T01:30:50.505Z,46.65
2019-03-26T01:45:53.572Z,46.72
2019-03-26T02:00:50.518Z,47.07
2019-03-26T02:15:57.045Z,47.60
2019-03-26T02:30:50.817Z,48.22
2019-03-26T02:45:50.642Z,48.98
2019-03-26T03:00:50.586Z,49.88
2019-03-26T03:15:51.002Z,50.73
2019-03-26T03:30:50.903Z,51.31
2019-03-26T03:45:52.380Z,52.07
2019-03-26T04:00:50.833Z,52.30
2019-03-26T04:15:51.123Z,52.94
2019-03-26T04:30:51.092Z,53.33
2019-03-26T04:45:51.005Z,52.59
2019-03-26T05:00:51.034Z,52.45
2019-03-26T05:15:50.251Z,53.19
2019-03-26T05:30:49.782Z,53.82
2019-03-26T05:45:50.209Z,53.95
2019-03-26T06:00:51.143Z,56.60
2019-03-26T06:15:50.541Z,50.62
2019-03-26T06:30:54.034Z,49.33
2019-03-26T06:45:50.358Z,46.91
2019-03-26T07:00:50.351Z,44.82
2019-03-26T07:15:50.746Z,44.33
2019-03-26T07:30:50.699Z,43.78
2019-03-26T07:45:50.648Z,42.07
2019-03-26T08:00:50.559Z,40.83
2019-03-26T08:15:50.952Z,40.04
2019-03-26T08:30:50.961Z,40.46
2019-03-26T08:45:50.330Z,41.12
2019-03-26T09:15:50.610Z,40.12
2019-03-26T09:30:56.559Z,40.48
2019-03-26T09:45:50.490Z,40.09
2019-03-26T10:00:50.518Z,39.98
2019-03-26T10:15:50.937Z,39.93
2019-03-26T10:30:50.965Z,40.10
2019-03-26T10:45:50.914Z,39.23
2019-03-26T11:00:53.769Z,38.97
2019-03-26T11:15:51.087Z,39.22
2019-03-26T11:30:51.022Z,40.36
2019-03-26T11:45:51.092Z,43.10
2019-03-26T12:00:53.936Z,43.86
2019-03-26T12:15:50.901Z,45.46
2019-03-26T12:30:50.366Z,51.80
2019-03-26T12:45:50.457Z,55.52
2019-03-26T13:00:50.311Z,58.34
2019-03-26T13:15:50.598Z,58.08
2019-03-26T13:30:50.566Z,59.61
2019-03-26T13:45:56.348Z,56.89
2019-03-26T14:00:50.438Z,53.30
2019-03-26T14:15:50.669Z,50.51
2019-03-26T14:30:51.679Z,48.10
2019-03-26T14:45:50.619Z,47.48
2019-03-26T15:00:50.570Z,48.62
2019-03-26T15:15:51.617Z,56.03
2019-03-26T15:30:51.038Z,58.51
2019-03-26T15:45:50.861Z,58.76
2019-03-26T16:00:51.228Z,59.30
2019-03-26T16:15:51.921Z,59.43
2019-03-26T16:30:51.225Z,50.83
2019-03-26T16:45:55.660Z,47.19
2019-03-26T17:00:54.607Z,45.76
2019-03-26T17:16:00.486Z,45.26
2019-03-26T17:31:00.500Z,44.83
2019-03-26T18:00:56.195Z,44.86
2019-03-26T18:15:51.645Z,44.55
2019-03-26T18:30:56.359Z,44.56
2019-03-26T18:45:57.590Z,44.35
2019-03-26T19:00:52.985Z,44.47
2019-03-26T19:15:56.742Z,44.64
2019-03-26T19:30:53.744Z,44.57
2019-03-26T20:00:52.846Z,43.52
2019-03-26T20:30:57.605Z,42.76
2019-03-26T20:45:51.523Z,42.58
2019-03-26T21:00:50.911Z,42.27
2019-03-26T21:45:50.718Z,42.05
2019-03-26T22:00:50.729Z,42.38
2019-03-26T22:15:51.320Z,42.75
2019-03-26T22:30:54.306Z,42.92
2019-03-26T22:45:54.183Z,43.00
2019-03-26T23:00:51.068Z,43.03
2019-03-26T23:15:51.138Z,43.28
2019-03-26T23:30:51.114Z,43.49
2019-03-26T23:45:57.472Z,43.69
